Time;durP1;ratioP1;P1;durP2;ratioP2;P2;SDS_P1;SDS_P2;PMS_P1;PMS_P2;Temp;Humidity;BMP_temperature;BMP_pressure;BME280_temperature;BME280_humidity;BME280_pressure;Samples;Min_cycle;Max_cycle;Signal;HPM_P1;HPM_P2
2022/04/26 03:37:55;;;;;;;21.20;4.10;;;;;;;;;;5000310;28;20050;-70
2022/04/26 03:40:22;;;;;;;12.68;3.92;;;;;;;;;;5004457;28;20049;-70
2022/04/26 03:42:49;;;;;;;16.45;4.68;;;;;;;;;;5000185;28;20115;-70
2022/04/26 03:45:16;;;;;;;15.63;4.13;;;;;;;;;;4996312;28;20058;-70
2022/04/26 03:47:44;;;;;;;17.77;4.22;;;;;;;;;;5001403;28;20146;-70
2022/04/26 03:50:12;;;;;;;15.45;3.90;;;;;;;;;;4997014;28;20046;-70
2022/04/26 03:52:40;;;;;;;12.70;4.00;;;;;;;;;;4997084;28;20070;-70
2022/04/26 03:55:08;;;;;;;17.95;4.07;;;;;;;;;;5002700;28;20797;-70
2022/04/26 03:57:35;;;;;;;14.88;4.20;;;;;;;;;;5000621;28;20046;-70
2022/04/26 04:00:02;;;;;;;15.43;3.90;;;;;;;;;;5002093;28;20100;-70
2022/04/26 04:02:29;;;;;;;19.58;4.45;;;;;;;;;;4998958;28;20041;-70
2022/04/26 04:04:57;;;;;;;14.57;4.47;;;;;;;;;;4993908;28;20137;-70
2022/04/26 04:07:25;;;;;;;16.65;4.82;;;;;;;;;;5002445;28;20058;-70
2022/04/26 04:09:54;;;;;;;14.38;4.32;;;;;;;;;;5002869;28;20057;-69
2022/04/26 04:12:21;;;;;;;16.67;4.82;;;;;;;;;;5002342;28;20046;-69
2022/04/26 04:14:48;;;;;;;13.52;4.45;;;;;;;;;;4998481;28;20069;-69
2022/04/26 04:17:15;;;;;;;15.90;4.75;;;;;;;;;;4997537;28;20062;-69
2022/04/26 04:19:43;;;;;;;9.57;4.10;;;;;;;;;;4999527;28;20054;-69
2022/04/26 04:22:10;;;;;;;12.95;4.07;;;;;;;;;;4998442;28;20054;-69
2022/04/26 04:24:38;;;;;;;12.95;4.20;;;;;;;;;;4996490;28;20064;-70
2022/04/26 04:27:06;;;;;;;17.42;5.03;;;;;;;;;;5001007;28;20057;-70
2022/04/26 04:29:33;;;;;;;15.60;4.50;;;;;;;;;;4997512;28;20084;-70
2022/04/26 04:32:01;;;;;;;13.93;3.78;;;;;;;;;;5002435;28;20057;-70
2022/04/26 04:34:28;;;;;;;14.40;3.80;;;;;;;;;;5004269;28;20088;-70
2022/04/26 04:36:55;;;;;;;16.42;4.45;;;;;;;;;;4997930;28;20120;-70
2022/04/26 04:39:23;;;;;;;17.92;4.68;;;;;;;;;;5004916;28;20431;-70
2022/04/26 04:41:52;;;;;;;13.18;4.07;;;;;;;;;;5002834;28;20464;-70
2022/04/26 04:44:20;;;;;;;14.98;4.13;;;;;;;;;;5003053;28;20068;-69
2022/04/26 04:46:47;;;;;;;15.07;4.32;;;;;;;;;;5002889;28;20045;-69
2022/04/26 04:49:14;;;;;;;16.05;4.20;;;;;;;;;;5001610;28;20049;-70
2022/04/26 04:51:42;;;;;;;12.20;4.22;;;;;;;;;;5000137;28;20125;-70
2022/04/26 04:54:09;;;;;;;15.63;3.63;;;;;;;;;;5000660;28;20053;-70
2022/04/26 04:56:36;;;;;;;13.98;4.25;;;;;;;;;;4997677;28;20416;-70
2022/04/26 04:59:04;;;;;;;16.65;4.28;;;;;;;;;;5002333;28;20101;-69
2022/04/26 05:01:32;;;;;;;14.32;3.90;;;;;;;;;;5001335;28;20524;-69
2022/04/26 05:03:59;;;;;;;21.50;4.43;;;;;;;;;;5002404;28;20823;-70
2022/04/26 05:06:26;;;;;;;16.92;4.82;;;;;;;;;;4998714;28;20045;-70
2022/04/26 05:08:53;;;;;;;17.00;4.00;;;;;;;;;;5003172;28;20049;-70
2022/04/26 05:11:21;;;;;;;14.10;4.50;;;;;;;;;;5006637;28;20053;-70
2022/04/26 05:13:48;;;;;;;18.77;4.72;;;;;;;;;;5008329;28;20062;-70
2022/04/26 05:16:16;;;;;;;11.38;4.63;;;;;;;;;;5005599;28;20464;-70
2022/04/26 05:18:44;;;;;;;17.50;5.22;;;;;;;;;;5006699;28;20054;-70
2022/04/26 05:21:13;;;;;;;12.82;5.30;;;;;;;;;;5007586;28;20046;-70
2022/04/26 05:26:25;;;;;;;17.80;5.88;;;;;;;;;;5007083;28;20049;-70
2022/04/26 05:28:52;;;;;;;13.20;5.50;;;;;;;;;;5006343;28;20120;-70
2022/04/26 05:31:21;;;;;;;11.40;4.88;;;;;;;;;;5002225;28;20054;-70
2022/04/26 05:33:48;;;;;;;8.93;4.22;;;;;;;;;;5002813;28;20694;-70
2022/04/26 05:36:16;;;;;;;14.45;4.13;;;;;;;;;;5002543;28;20385;-70
2022/04/26 05:38:43;;;;;;;12.18;4.10;;;;;;;;;;5006179;28;20543;-70
2022/04/26 05:41:10;;;;;;;13.27;4.78;;;;;;;;;;5000103;28;20046;-70
2022/04/26 05:43:37;;;;;;;11.75;4.05;;;;;;;;;;5001680;28;20054;-71
2022/04/26 05:46:04;;;;;;;14.25;4.28;;;;;;;;;;5002470;28;20863;-70
2022/04/26 05:48:33;;;;;;;10.32;3.92;;;;;;;;;;5005205;28;20777;-72
2022/04/26 05:51:01;;;;;;;11.98;3.80;;;;;;;;;;5005313;28;20192;-71
2022/04/26 05:53:29;;;;;;;14.55;4.60;;;;;;;;;;5006031;28;20065;-70
2022/04/26 05:55:56;;;;;;;9.55;3.38;;;;;;;;;;5006274;28;20058;-74
2022/04/26 05:58:23;;;;;;;11.40;3.80;;;;;;;;;;5003250;28;20053;-74
2022/04/26 06:00:50;;;;;;;17.25;4.43;;;;;;;;;;4999123;28;20500;-75
2022/04/26 06:03:18;;;;;;;10.52;3.33;;;;;;;;;;5001412;28;20057;-73
2022/04/26 06:05:46;;;;;;;11.63;4.15;;;;;;;;;;5000657;28;20058;-69
2022/04/26 06:08:13;;;;;;;9.07;3.05;;;;;;;;;;4999291;28;20057;-71
2022/04/26 06:10:41;;;;;;;10.57;3.58;;;;;;;;;;5001017;28;20050;-71
2022/04/26 06:13:09;;;;;;;17.38;4.18;;;;;;;;;;4995836;28;20046;-70
2022/04/26 06:15:36;;;;;;;11.05;2.95;;;;;;;;;;4997574;28;20125;-72
2022/04/26 06:18:03;;;;;;;13.88;3.80;;;;;;;;;;4997034;28;20054;-72
2022/04/26 06:20:31;;;;;;;11.55;3.22;;;;;;;;;;4996180;28;20501;-71
2022/04/26 06:23:00;;;;;;;12.52;3.00;;;;;;;;;;5000122;28;20050;-70
2022/04/26 06:25:27;;;;;;;11.02;2.90;;;;;;;;;;4999652;28;20050;-70
2022/04/26 06:27:55;;;;;;;10.60;3.03;;;;;;;;;;4998841;28;20579;-71
2022/04/26 06:30:22;;;;;;;11.85;3.08;;;;;;;;;;5005598;28;20041;-70
2022/04/26 06:32:49;;;;;;;11.68;2.88;;;;;;;;;;5005022;28;20042;-70
2022/04/26 06:35:16;;;;;;;9.93;3.00;;;;;;;;;;5002602;28;20104;-71
2022/04/26 06:37:43;;;;;;;9.50;2.70;;;;;;;;;;5000419;28;20427;-71
2022/04/26 06:40:12;;;;;;;13.05;2.60;;;;;;;;;;5002558;28;20455;-71
2022/04/26 06:42:39;;;;;;;12.77;3.38;;;;;;;;;;5006063;28;20537;-71
2022/04/26 06:45:07;;;;;;;9.38;2.40;;;;;;;;;;4997909;28;20119;-71
2022/04/26 06:47:34;;;;;;;10.27;2.65;;;;;;;;;;4995159;28;20051;-71
2022/04/26 06:50:01;;;;;;;11.40;2.78;;;;;;;;;;4997447;28;20046;-71
2022/04/26 06:52:31;;;;;;;9.35;2.70;;;;;;;;;;4991785;28;20042;-71
2022/04/26 06:54:58;;;;;;;6.78;2.30;;;;;;;;;;5015910;28;20534;-71
2022/04/26 06:57:27;;;;;;;6.38;2.38;;;;;;;;;;4998277;28;20062;-71
2022/04/26 06:59:54;;;;;;;10.80;2.72;;;;;;;;;;5000619;28;20054;-71
2022/04/26 07:02:22;;;;;;;9.70;2.80;;;;;;;;;;5003875;28;20042;-71
2022/04/26 07:04:49;;;;;;;8.25;2.60;;;;;;;;;;5004275;28;20440;-71
2022/04/26 07:07:16;;;;;;;8.25;2.70;;;;;;;;;;5006618;28;20056;-71
2022/04/26 07:09:43;;;;;;;8.95;2.30;;;;;;;;;;5001066;28;20053;-71
2022/04/26 07:12:11;;;;;;;10.43;2.47;;;;;;;;;;5006291;28;20054;-71
2022/04/26 07:14:39;;;;;;;6.45;2.38;;;;;;;;;;5006264;28;20076;-71
2022/04/26 07:17:06;;;;;;;9.65;2.50;;;;;;;;;;5007057;28;20502;-71
2022/04/26 07:19:36;;;;;;;10.13;2.47;;;;;;;;;;5005968;28;20053;-71
2022/04/26 07:22:03;;;;;;;11.60;2.65;;;;;;;;;;5004071;28;20837;-71
2022/04/26 07:24:31;;;;;;;9.45;1.98;;;;;;;;;;5000315;28;20679;-71
2022/04/26 07:26:58;;;;;;;9.63;2.15;;;;;;;;;;5006694;28;20239;-71
2022/04/26 07:29:25;;;;;;;7.07;2.33;;;;;;;;;;5000873;28;20073;-71
2022/04/26 07:31:54;;;;;;;8.07;2.20;;;;;;;;;;5002962;28;20064;-71
2022/04/26 07:34:24;;;;;;;10.30;2.45;;;;;;;;;;5007947;28;20050;-71
2022/04/26 07:36:52;;;;;;;8.77;2.60;;;;;;;;;;5003501;28;20423;-71
2022/04/26 07:39:19;;;;;;;9.88;2.38;;;;;;;;;;5003089;28;20061;-71
2022/04/26 07:41:47;;;;;;;10.18;2.40;;;;;;;;;;5004086;28;20052;-71
2022/04/26 07:44:14;;;;;;;7.75;2.15;;;;;;;;;;5000364;28;20608;-71
2022/04/26 07:46:42;;;;;;;8.65;2.20;;;;;;;;;;5006004;28;20049;-71
2022/04/26 07:49:11;;;;;;;4.13;1.90;;;;;;;;;;5006079;28;20061;-71
2022/04/26 07:51:38;;;;;;;8.63;2.28;;;;;;;;;;5006520;28;20049;-71
2022/04/26 07:54:06;;;;;;;7.57;2.55;;;;;;;;;;5002686;28;20077;-71
2022/04/26 07:56:33;;;;;;;9.15;2.00;;;;;;;;;;5004112;28;20081;-71
2022/04/26 07:59:01;;;;;;;9.20;2.40;;;;;;;;;;5006359;28;20519;-71
2022/04/26 08:01:29;;;;;;;9.18;2.40;;;;;;;;;;5006520;28;20052;-71
2022/04/26 08:03:57;;;;;;;7.55;1.85;;;;;;;;;;5004959;28;20139;-72
2022/04/26 08:06:25;;;;;;;8.45;2.10;;;;;;;;;;5006244;28;20058;-71
2022/04/26 08:08:53;;;;;;;6.65;1.85;;;;;;;;;;5005474;28;20057;-71
2022/04/26 08:11:21;;;;;;;7.68;2.30;;;;;;;;;;5005890;28;20500;-71
2022/04/26 08:13:48;;;;;;;6.53;2.20;;;;;;;;;;5002822;28;20064;-71
2022/04/26 08:16:16;;;;;;;7.97;1.80;;;;;;;;;;5006042;28;20061;-72
2022/04/26 08:18:43;;;;;;;7.32;2.15;;;;;;;;;;5004833;28;20050;-71
2022/04/26 08:21:14;;;;;;;7.78;1.85;;;;;;;;;;5005406;28;20060;-71
2022/04/26 08:29:14;;;;;;;10.65;2.05;;;;;;;;;;5005336;28;20123;-71
2022/04/26 08:31:41;;;;;;;6.18;1.98;;;;;;;;;;5006482;28;20046;-71
2022/04/26 08:34:09;;;;;;;4.55;1.77;;;;;;;;;;5021866;28;20050;-71
2022/04/26 08:36:36;;;;;;;5.18;1.85;;;;;;;;;;5005502;28;20057;-71
2022/04/26 08:39:04;;;;;;;7.13;2.10;;;;;;;;;;5005548;28;20068;-71
2022/04/26 08:41:33;;;;;;;6.85;2.15;;;;;;;;;;5004558;28;20060;-72
2022/04/26 08:44:01;;;;;;;8.80;1.75;;;;;;;;;;5006018;28;20054;-71
2022/04/26 08:50:59;;;;;;;4.75;1.65;;;;;;;;;;5004886;28;20065;-71
2022/04/26 08:52:02;;;;;;;4.88;1.48;;;;;;;;;;5002643;28;20042;-71
2022/04/26 08:54:32;;;;;;;7.55;2.08;;;;;;;;;;5001123;28;20068;-71
2022/04/26 08:56:59;;;;;;;6.53;1.63;;;;;;;;;;5002426;28;20420;-71
2022/04/26 08:59:26;;;;;;;6.47;1.85;;;;;;;;;;5004721;28;20108;-71
2022/04/26 09:02:14;;;;;;;5.45;1.60;;;;;;;;;;5004636;28;20058;-71
2022/04/26 09:04:41;;;;;;;5.63;1.73;;;;;;;;;;5003087;28;20050;-71
2022/04/26 09:07:11;;;;;;;10.38;2.10;;;;;;;;;;5005234;28;20072;-71
2022/04/26 09:09:41;;;;;;;5.60;1.80;;;;;;;;;;5005075;28;20144;-72
2022/04/26 09:12:12;;;;;;;6.43;2.40;;;;;;;;;;5003305;28;20767;-71
2022/04/26 09:14:47;;;;;;;5.80;2.13;;;;;;;;;;5006114;28;20053;-72
2022/04/26 09:17:17;;;;;;;4.50;1.67;;;;;;;;;;5004952;28;20057;-72
2022/04/26 09:19:48;;;;;;;4.57;1.67;;;;;;;;;;5004777;28;20077;-71
2022/04/26 09:22:19;;;;;;;9.15;2.33;;;;;;;;;;5005018;28;20139;-71
2022/04/26 09:24:58;;;;;;;6.63;1.60;;;;;;;;;;5002112;28;20061;-71
2022/04/26 09:27:26;;;;;;;7.00;1.80;;;;;;;;;;5006422;28;20123;-71
2022/04/26 09:29:54;;;;;;;4.13;1.90;;;;;;;;;;5003840;28;20199;-72
2022/04/26 09:32:23;;;;;;;7.25;2.35;;;;;;;;;;4995228;28;20042;-71
2022/04/26 09:34:50;;;;;;;6.45;1.90;;;;;;;;;;5004929;28;20053;-71
2022/04/26 09:37:17;;;;;;;4.60;1.75;;;;;;;;;;5005095;28;20052;-71
2022/04/26 09:39:59;;;;;;;6.53;2.00;;;;;;;;;;5001756;28;20053;-71
2022/04/26 09:42:31;;;;;;;7.88;1.80;;;;;;;;;;5001952;28;20053;-72
2022/04/26 09:45:05;;;;;;;3.03;1.70;;;;;;;;;;4998347;28;20058;-72
2022/04/26 09:47:39;;;;;;;6.97;2.10;;;;;;;;;;5004695;28;20129;-72
2022/04/26 09:50:07;;;;;;;6.55;1.88;;;;;;;;;;5003688;28;20870;-72
2022/04/26 09:52:34;;;;;;;7.72;2.00;;;;;;;;;;5002369;28;20042;-71
2022/04/26 09:55:01;;;;;;;6.43;1.98;;;;;;;;;;5001343;28;20058;-72
2022/04/26 09:57:30;;;;;;;7.97;1.70;;;;;;;;;;5005615;28;20146;-73
2022/04/26 09:59:59;;;;;;;5.95;1.95;;;;;;;;;;5004941;28;20045;-72
2022/04/26 10:02:29;;;;;;;4.80;1.92;;;;;;;;;;5008217;28;20045;-71
2022/04/26 10:04:58;;;;;;;3.50;1.50;;;;;;;;;;5002251;28;20053;-71
2022/04/26 10:07:27;;;;;;;5.70;1.90;;;;;;;;;;5008276;28;20058;-71
2022/04/26 10:09:55;;;;;;;5.70;2.13;;;;;;;;;;5003923;28;20796;-72
2022/04/26 10:12:22;;;;;;;8.10;2.08;;;;;;;;;;5007554;28;20092;-72
2022/04/26 10:14:53;;;;;;;5.22;2.03;;;;;;;;;;5006920;28;20056;-72
2022/04/26 10:17:22;;;;;;;6.10;1.65;;;;;;;;;;5000439;28;20198;-72
2022/04/26 10:19:49;;;;;;;8.80;2.03;;;;;;;;;;4999666;28;20436;-71
2022/04/26 10:22:17;;;;;;;5.90;1.60;;;;;;;;;;4997500;28;20049;-72
2022/04/26 10:24:59;;;;;;;5.78;1.80;;;;;;;;;;5003026;28;20057;-71
2022/04/26 10:27:27;;;;;;;5.90;1.90;;;;;;;;;;4993300;28;20054;-71
2022/04/26 10:29:54;;;;;;;5.15;1.83;;;;;;;;;;4994568;28;20156;-72
2022/04/26 10:32:34;;;;;;;5.20;1.85;;;;;;;;;;5000097;28;20057;-71
2022/04/26 10:35:20;;;;;;;6.57;1.80;;;;;;;;;;5001914;28;20096;-72
2022/04/26 10:38:07;;;;;;;12.40;2.20;;;;;;;;;;5004556;28;20050;-72
2022/04/26 10:41:03;;;;;;;5.30;1.65;;;;;;;;;;5005723;28;20045;-72
2022/04/26 10:43:31;;;;;;;5.68;1.73;;;;;;;;;;5006991;28;20054;-71
2022/04/26 10:46:11;;;;;;;6.38;2.03;;;;;;;;;;5007178;28;20042;-71
2022/04/26 10:48:39;;;;;;;4.10;1.70;;;;;;;;;;5003831;28;20050;-71
2022/04/26 10:51:21;;;;;;;6.55;2.13;;;;;;;;;;5007312;28;20115;-71
2022/04/26 10:53:49;;;;;;;4.65;1.80;;;;;;;;;;5004980;28;20792;-73
2022/04/26 10:56:16;;;;;;;5.07;1.70;;;;;;;;;;5004432;28;20120;-71
2022/04/26 10:58:55;;;;;;;3.78;1.77;;;;;;;;;;5000134;28;20694;-71
2022/04/26 11:01:24;;;;;;;6.88;1.95;;;;;;;;;;4994494;28;20101;-71
2022/04/26 11:03:55;;;;;;;8.13;1.88;;;;;;;;;;4997894;28;20045;-71
2022/04/26 11:06:34;;;;;;;6.30;1.80;;;;;;;;;;4999768;28;20129;-71
2022/04/26 11:09:08;;;;;;;5.32;2.08;;;;;;;;;;4995156;28;20100;-71
2022/04/26 11:11:47;;;;;;;6.80;1.77;;;;;;;;;;5007221;28;20140;-71
2022/04/26 11:14:17;;;;;;;5.43;1.80;;;;;;;;;;5003232;28;20047;-71
2022/04/26 11:16:55;;;;;;;4.75;1.90;;;;;;;;;;5000775;28;20064;-71
2022/04/26 11:19:26;;;;;;;5.43;1.70;;;;;;;;;;5004724;28;20133;-71
2022/04/26 11:21:53;;;;;;;5.47;2.00;;;;;;;;;;4996651;28;20058;-71
2022/04/26 11:29:54;;;;;;;7.13;1.90;;;;;;;;;;4995476;28;20054;-71
2022/04/26 11:32:31;;;;;;;4.75;1.80;;;;;;;;;;4992836;28;20054;-72
2022/04/26 11:34:59;;;;;;;5.45;1.88;;;;;;;;;;5000665;28;20458;-72
2022/04/26 11:37:26;;;;;;;6.68;1.90;;;;;;;;;;4999452;28;20115;-72
2022/04/26 11:39:53;;;;;;;3.80;1.67;;;;;;;;;;4995037;28;20052;-72
2022/04/26 11:42:21;;;;;;;6.47;1.77;;;;;;;;;;4996830;28;20045;-73
2022/04/26 11:44:59;;;;;;;8.38;1.63;;;;;;;;;;5000184;28;20071;-71
2022/04/26 11:47:40;;;;;;;5.90;1.90;;;;;;;;;;5004863;28;20129;-71
2022/04/26 11:50:11;;;;;;;6.63;1.80;;;;;;;;;;5000442;28;20049;-72
2022/04/26 11:52:38;;;;;;;6.80;1.88;;;;;;;;;;4999626;28;20053;-72
2022/04/26 11:55:06;;;;;;;7.97;2.00;;;;;;;;;;5004324;28;20061;-71
2022/04/26 11:57:34;;;;;;;5.35;2.00;;;;;;;;;;5003851;28;20049;-71
2022/04/26 12:00:04;;;;;;;5.95;2.13;;;;;;;;;;5001232;28;20054;-71
2022/04/26 12:02:34;;;;;;;3.80;1.77;;;;;;;;;;5004594;28;20081;-72
2022/04/26 12:05:01;;;;;;;5.32;1.83;;;;;;;;;;4993916;28;20133;-72
2022/04/26 12:07:28;;;;;;;4.90;1.83;;;;;;;;;;4992513;28;20077;-72
2022/04/26 12:09:56;;;;;;;5.40;1.80;;;;;;;;;;4995033;28;20057;-71
2022/04/26 12:12:26;;;;;;;7.57;2.28;;;;;;;;;;4995785;28;20045;-72
2022/04/26 12:14:55;;;;;;;5.28;2.20;;;;;;;;;;4998929;28;20089;-71
2022/04/26 12:17:29;;;;;;;7.40;1.92;;;;;;;;;;4993054;28;20145;-71
2022/04/26 12:19:56;;;;;;;7.38;2.08;;;;;;;;;;4994191;28;20137;-71
2022/04/26 12:22:26;;;;;;;9.65;2.08;;;;;;;;;;4995612;28;20497;-71
2022/04/26 12:24:53;;;;;;;5.57;2.00;;;;;;;;;;4997033;28;20059;-71
2022/04/26 12:27:22;;;;;;;6.70;1.80;;;;;;;;;;4992902;28;20050;-71
2022/04/26 12:29:50;;;;;;;4.82;1.70;;;;;;;;;;4988065;28;20065;-71
2022/04/26 12:32:18;;;;;;;4.60;1.55;;;;;;;;;;5000069;28;20049;-71
2022/04/26 12:34:50;;;;;;;5.43;1.75;;;;;;;;;;5001274;28;20512;-71
2022/04/26 12:37:21;;;;;;;9.65;1.77;;;;;;;;;;5001021;28;20057;-71
2022/04/26 12:39:50;;;;;;;7.88;1.70;;;;;;;;;;5004291;28;20058;-70
2022/04/26 12:42:30;;;;;;;5.13;1.95;;;;;;;;;;5001998;28;20046;-70
2022/04/26 12:44:58;;;;;;;4.95;1.80;;;;;;;;;;5004278;28;20068;-71
2022/04/26 12:50:32;;;;;;;3.05;1.60;;;;;;;;;;5006270;28;20099;-70
2022/04/26 12:53:00;;;;;;;8.68;2.10;;;;;;;;;;5001912;28;20068;-71
2022/04/26 12:55:29;;;;;;;8.00;1.85;;;;;;;;;;5003734;28;20050;-70
2022/04/26 12:57:57;;;;;;;12.32;1.70;;;;;;;;;;5004502;28;20096;-70
2022/04/26 13:00:26;;;;;;;5.70;1.88;;;;;;;;;;5002782;28;20046;-70
2022/04/26 13:02:58;;;;;;;4.97;1.92;;;;;;;;;;4999905;28;20072;-70
2022/04/26 13:05:27;;;;;;;5.95;1.80;;;;;;;;;;4999529;28;20050;-70
2022/04/26 13:07:55;;;;;;;6.95;2.10;;;;;;;;;;5003145;28;20108;-70
2022/04/26 13:10:22;;;;;;;6.45;1.88;;;;;;;;;;5024176;28;20139;-70
2022/04/26 13:12:49;;;;;;;5.45;1.92;;;;;;;;;;4999596;28;20140;-70
2022/04/26 13:15:19;;;;;;;7.50;2.08;;;;;;;;;;5003331;28;20049;-70
2022/04/26 13:17:46;;;;;;;5.65;2.28;;;;;;;;;;4998389;28;20050;-70
2022/04/26 13:20:13;;;;;;;6.18;2.22;;;;;;;;;;4997639;28;20073;-70
2022/04/26 13:22:42;;;;;;;5.82;2.17;;;;;;;;;;4997193;28;20058;-70
2022/04/26 13:25:11;;;;;;;7.22;2.15;;;;;;;;;;5000913;28;20497;-70
2022/04/26 13:27:38;;;;;;;6.53;2.15;;;;;;;;;;5003276;28;20085;-70
2022/04/26 13:30:06;;;;;;;8.25;2.10;;;;;;;;;;5000505;28;20065;-70
2022/04/26 13:32:34;;;;;;;4.65;1.80;;;;;;;;;;5006194;28;20050;-70
2022/04/26 13:35:02;;;;;;;6.57;1.85;;;;;;;;;;5007829;28;20061;-70
2022/04/26 13:37:29;;;;;;;5.60;1.88;;;;;;;;;;5008118;28;20049;-71
2022/04/26 13:39:58;;;;;;;6.20;2.03;;;;;;;;;;5010019;28;20054;-71
2022/04/26 13:42:27;;;;;;;5.03;1.92;;;;;;;;;;5007525;28;20049;-70
2022/04/26 13:44:55;;;;;;;5.82;2.10;;;;;;;;;;5007317;28;20050;-70
2022/04/26 13:47:22;;;;;;;6.35;1.90;;;;;;;;;;5000144;28;20428;-70
2022/04/26 13:49:51;;;;;;;5.82;2.40;;;;;;;;;;5008461;28;20497;-70
2022/04/26 13:52:20;;;;;;;6.57;2.08;;;;;;;;;;5003990;28;20493;-70
2022/04/26 13:54:47;;;;;;;4.05;1.55;;;;;;;;;;5006944;28;20649;-70
2022/04/26 13:57:16;;;;;;;4.93;1.88;;;;;;;;;;5008530;28;20046;-70
2022/04/26 13:59:43;;;;;;;4.15;1.30;;;;;;;;;;5004448;28;20084;-70
2022/04/26 14:02:11;;;;;;;7.00;1.80;;;;;;;;;;5008202;28;20064;-70
2022/04/26 14:04:38;;;;;;;7.10;1.90;;;;;;;;;;5007335;28;20058;-70
2022/04/26 14:07:05;;;;;;;5.30;2.03;;;;;;;;;;5004930;28;20141;-70
2022/04/26 14:09:33;;;;;;;4.20;1.75;;;;;;;;;;5007427;28;20499;-70
2022/04/26 14:12:00;;;;;;;5.43;2.00;;;;;;;;;;5006531;28;20049;-70
2022/04/26 14:22:44;;;;;;;3.95;1.70;;;;;;;;;;5002078;28;20108;-70
2022/04/26 14:25:13;;;;;;;7.32;1.95;;;;;;;;;;5007859;28;20056;-70
2022/04/26 14:27:41;;;;;;;5.45;1.77;;;;;;;;;;5006720;28;20460;-70
2022/04/26 14:30:11;;;;;;;6.68;1.80;;;;;;;;;;5006767;28;20516;-70
2022/04/26 14:32:38;;;;;;;4.80;1.80;;;;;;;;;;5006448;28;20053;-70
2022/04/26 14:35:06;;;;;;;3.72;1.60;;;;;;;;;;5005912;28;20723;-70
2022/04/26 14:37:34;;;;;;;10.73;1.85;;;;;;;;;;5004753;28;20515;-70
2022/04/26 14:40:01;;;;;;;4.20;1.90;;;;;;;;;;5004638;28;20104;-70
2022/04/26 14:42:28;;;;;;;5.68;1.75;;;;;;;;;;5007057;28;20416;-71
2022/04/26 14:44:56;;;;;;;3.90;1.55;;;;;;;;;;5006780;28;20057;-71
2022/04/26 14:47:27;;;;;;;5.07;1.75;;;;;;;;;;5005913;28;20702;-71
2022/04/26 14:49:57;;;;;;;4.03;1.75;;;;;;;;;;5004860;28;20083;-71
2022/04/26 14:52:24;;;;;;;9.48;2.00;;;;;;;;;;5007088;28;20058;-71
2022/04/26 14:54:52;;;;;;;4.80;1.75;;;;;;;;;;5004782;28;20060;-71
2022/04/26 14:57:21;;;;;;;6.50;2.03;;;;;;;;;;5004493;28;20445;-71
2022/04/26 14:59:48;;;;;;;7.35;2.00;;;;;;;;;;5006232;28;20068;-71
2022/04/26 15:02:17;;;;;;;6.68;1.98;;;;;;;;;;5007065;28;20124;-71
2022/04/26 15:04:47;;;;;;;5.35;1.88;;;;;;;;;;5007499;28;20107;-71
2022/04/26 15:07:14;;;;;;;4.45;1.70;;;;;;;;;;5006734;28;20172;-71
2022/04/26 15:09:44;;;;;;;5.30;1.95;;;;;;;;;;5001440;28;20058;-71
2022/04/26 15:17:41;;;;;;;3.75;1.73;;;;;;;;;;5003786;28;20057;-72
2022/04/26 15:20:10;;;;;;;5.57;1.70;;;;;;;;;;5007353;28;20065;-72
2022/04/26 15:22:38;;;;;;;4.07;1.73;;;;;;;;;;5004869;28;20053;-71
2022/04/26 15:25:06;;;;;;;7.63;1.92;;;;;;;;;;5002793;28;20046;-72
2022/04/26 15:27:35;;;;;;;6.90;2.00;;;;;;;;;;5006572;28;20129;-72
2022/04/26 15:30:02;;;;;;;4.00;1.98;;;;;;;;;;5006864;28;20088;-72
2022/04/26 15:32:29;;;;;;;5.35;2.20;;;;;;;;;;5006745;28;20096;-72
2022/04/26 15:34:57;;;;;;;4.70;2.25;;;;;;;;;;4998699;28;20057;-72
2022/04/26 15:37:25;;;;;;;4.95;2.13;;;;;;;;;;4999712;28;20049;-72
2022/04/26 15:39:53;;;;;;;5.10;1.83;;;;;;;;;;4997268;28;20068;-71
2022/04/26 15:42:20;;;;;;;5.55;1.92;;;;;;;;;;5000331;28;20388;-71
2022/04/26 15:44:48;;;;;;;5.22;2.22;;;;;;;;;;5000394;28;20046;-71
2022/04/26 15:47:15;;;;;;;3.72;1.90;;;;;;;;;;5001094;28;20042;-71
2022/04/26 15:49:42;;;;;;;5.93;1.85;;;;;;;;;;5001877;28;20065;-71
2022/04/26 15:52:10;;;;;;;4.10;2.00;;;;;;;;;;5003514;28;20053;-72
2022/04/26 15:54:38;;;;;;;6.28;2.25;;;;;;;;;;5002926;28;20629;-73
2022/04/26 15:57:06;;;;;;;5.13;1.75;;;;;;;;;;5006499;28;20053;-74
2022/04/26 15:59:33;;;;;;;6.32;2.08;;;;;;;;;;5005436;28;20053;-76
2022/04/26 16:02:00;;;;;;;7.53;2.40;;;;;;;;;;5002146;28;20377;-75
2022/04/26 16:04:27;;;;;;;5.60;1.92;;;;;;;;;;4998469;28;20835;-75
2022/04/26 16:06:55;;;;;;;4.05;1.80;;;;;;;;;;5007453;28;20057;-75
2022/04/26 16:23:07;;;;;;;6.10;2.35;;;;;;;;;;5000061;28;20037;-73
2022/04/26 16:25:35;;;;;;;5.40;2.08;;;;;;;;;;5003336;28;20120;-73
2022/04/26 16:28:04;;;;;;;4.13;2.10;;;;;;;;;;5004868;28;20050;-73
2022/04/26 16:30:32;;;;;;;6.47;2.20;;;;;;;;;;5001138;28;20420;-73
2022/04/26 16:33:04;;;;;;;5.07;1.83;;;;;;;;;;5007216;28;20057;-73
2022/04/26 16:35:31;;;;;;;6.75;2.50;;;;;;;;;;5004240;28;20060;-73
2022/04/26 16:37:59;;;;;;;5.25;1.98;;;;;;;;;;5005109;28;20057;-72
2022/04/26 16:40:28;;;;;;;6.15;2.08;;;;;;;;;;5005246;28;20050;-72
2022/04/26 16:42:55;;;;;;;6.05;2.00;;;;;;;;;;5003695;28;20066;-72
2022/04/26 16:45:24;;;;;;;8.20;2.10;;;;;;;;;;5004073;28;20148;-72
2022/04/26 16:47:53;;;;;;;6.70;2.08;;;;;;;;;;4991946;28;20141;-72
2022/04/26 16:50:20;;;;;;;8.55;2.33;;;;;;;;;;5000677;28;20241;-73
2022/04/26 16:52:49;;;;;;;6.53;2.00;;;;;;;;;;5006266;28;20560;-72
2022/04/26 16:55:16;;;;;;;6.10;2.20;;;;;;;;;;5001139;28;20116;-72
2022/04/26 16:57:45;;;;;;;6.25;2.10;;;;;;;;;;4998052;28;20711;-71
2022/04/26 17:00:14;;;;;;;6.53;2.28;;;;;;;;;;5001532;28;20623;-72
2022/04/26 17:02:43;;;;;;;4.88;1.92;;;;;;;;;;5002649;28;20049;-72
2022/04/26 17:05:11;;;;;;;5.25;1.85;;;;;;;;;;5002289;28;20057;-72
2022/04/26 17:07:39;;;;;;;10.55;2.13;;;;;;;;;;5003560;28;20057;-72
2022/04/26 17:10:08;;;;;;;10.60;2.22;;;;;;;;;;5002860;28;20053;-72
2022/04/26 17:12:35;;;;;;;6.85;1.95;;;;;;;;;;5003086;28;20435;-72
2022/04/26 17:15:04;;;;;;;7.20;1.92;;;;;;;;;;5001639;28;20764;-71
2022/04/26 17:17:33;;;;;;;5.07;2.10;;;;;;;;;;5007337;28;20116;-71
2022/04/26 17:20:02;;;;;;;5.07;1.98;;;;;;;;;;5004088;28;20489;-71
2022/04/26 17:22:29;;;;;;;7.20;2.03;;;;;;;;;;5001997;28;20125;-71
2022/04/26 17:25:15;;;;;;;6.50;2.22;;;;;;;;;;5005524;28;20046;-71
2022/04/26 17:27:42;;;;;;;7.30;1.80;;;;;;;;;;4999676;28;20061;-71
2022/04/26 17:30:10;;;;;;;8.90;2.13;;;;;;;;;;5003376;28;20058;-71
2022/04/26 17:32:37;;;;;;;4.25;1.67;;;;;;;;;;5005755;28;20157;-71
2022/04/26 17:35:06;;;;;;;6.85;1.83;;;;;;;;;;5000636;28;20054;-71
2022/04/26 17:37:34;;;;;;;10.15;1.77;;;;;;;;;;5005756;28;20050;-71
2022/04/26 17:40:01;;;;;;;6.78;1.70;;;;;;;;;;5007712;28;20042;-72
2022/04/26 17:42:29;;;;;;;6.03;2.05;;;;;;;;;;5005224;28;20053;-73
2022/04/26 17:44:57;;;;;;;8.80;1.83;;;;;;;;;;5001590;28;20120;-72
2022/04/26 17:47:24;;;;;;;6.03;1.83;;;;;;;;;;5005458;28;20053;-72
2022/04/26 17:49:51;;;;;;;4.85;1.80;;;;;;;;;;5004255;28;20050;-71
2022/04/26 17:52:20;;;;;;;7.43;1.90;;;;;;;;;;5004749;28;20423;-71
2022/04/26 17:57:32;;;;;;;6.45;1.60;;;;;;;;;;5000952;28;20042;-71
2022/04/26 17:59:59;;;;;;;7.22;1.88;;;;;;;;;;4999989;28;20370;-71
2022/04/26 18:02:27;;;;;;;4.53;1.77;;;;;;;;;;5004920;28;20065;-71
2022/04/26 18:04:57;;;;;;;8.15;1.90;;;;;;;;;;5003352;28;20424;-71
2022/04/26 18:07:25;;;;;;;6.50;2.03;;;;;;;;;;5007474;28;20058;-71
2022/04/26 18:09:53;;;;;;;7.53;2.08;;;;;;;;;;5003586;28;20143;-71
2022/04/26 18:12:21;;;;;;;8.30;1.60;;;;;;;;;;5007538;28;20056;-71
2022/04/26 18:14:48;;;;;;;6.13;1.77;;;;;;;;;;5011062;28;20056;-71
2022/04/26 18:17:16;;;;;;;7.07;1.90;;;;;;;;;;5004155;28;20057;-71
2022/04/26 18:19:43;;;;;;;7.82;2.00;;;;;;;;;;5001846;28;20046;-71
2022/04/26 18:22:10;;;;;;;9.30;2.50;;;;;;;;;;5001884;28;20053;-72
2022/04/26 18:24:39;;;;;;;7.05;2.05;;;;;;;;;;5001410;28;20402;-71
2022/04/26 18:27:06;;;;;;;8.77;2.33;;;;;;;;;;5004388;28;20104;-71
2022/04/26 18:29:37;;;;;;;7.50;2.80;;;;;;;;;;5003982;28;20056;-71
2022/04/26 18:32:04;;;;;;;7.07;2.00;;;;;;;;;;5005612;28;20049;-71
2022/04/26 18:34:31;;;;;;;6.63;2.47;;;;;;;;;;4999188;28;20149;-71
2022/04/26 18:37:01;;;;;;;7.72;2.38;;;;;;;;;;4998319;28;20053;-71
2022/04/26 18:39:29;;;;;;;5.68;2.10;;;;;;;;;;4997450;28;20061;-71
2022/04/26 18:41:59;;;;;;;8.82;2.83;;;;;;;;;;4998363;28;20551;-71
2022/04/26 18:44:26;;;;;;;8.52;2.03;;;;;;;;;;4997119;28;20153;-71
2022/04/26 18:46:53;;;;;;;7.38;2.38;;;;;;;;;;5000409;28;20765;-71
2022/04/26 18:49:22;;;;;;;7.72;2.25;;;;;;;;;;4998291;28;20046;-71
2022/04/26 18:51:50;;;;;;;7.97;2.38;;;;;;;;;;4999934;28;20080;-71
2022/04/26 18:54:18;;;;;;;9.15;2.42;;;;;;;;;;5015030;28;20432;-71
2022/04/26 18:56:47;;;;;;;9.93;3.03;;;;;;;;;;4999073;28;20061;-71
2022/04/26 18:59:16;;;;;;;10.98;3.00;;;;;;;;;;4999886;28;20060;-71
2022/04/26 19:01:43;;;;;;;14.05;4.78;;;;;;;;;;4999246;28;21482;-71
2022/04/26 19:04:14;;;;;;;10.07;4.40;;;;;;;;;;4996142;28;20081;-71
2022/04/26 19:06:41;;;;;;;10.50;4.70;;;;;;;;;;4998619;28;20396;-71
2022/04/26 19:09:10;;;;;;;11.32;4.20;;;;;;;;;;4995224;28;20061;-71
2022/04/26 19:14:23;;;;;;;9.50;2.70;;;;;;;;;;4991577;28;20107;-71
2022/04/26 19:16:50;;;;;;;8.75;2.83;;;;;;;;;;4990329;28;20053;-71
2022/04/26 19:19:18;;;;;;;6.40;2.15;;;;;;;;;;5004297;28;20050;-70